Time;durP1;ratioP1;P1;durP2;ratioP2;P2;SDS_P1;SDS_P2;PMS_P1;PMS_P2;Temp;Humidity;BMP_temperature;BMP_pressure;BME280_temperature;BME280_humidity;BME280_pressure;Samples;Min_cycle;Max_cycle;Signal;HPM_P1;HPM_P2
2023/05/03 00:01:55;;;;;;;;;;;;;;;21.67;29.85;98613.97;5076824;28;888;-74
2023/05/03 00:04:22;;;;;;;;;;;;;;;21.62;30.01;98617.28;5075459;28;923;-74
2023/05/03 00:06:48;;;;;;;;;;;;;;;21.64;30.34;98609.16;5076249;28;1023;-74
2023/05/03 00:09:14;;;;;;;;;;;;;;;21.68;30.33;98615.56;5058800;28;1103;-74
2023/05/03 00:11:40;;;;;;;;;;;;;;;21.88;29.64;98612.00;5075000;28;1914;-74
2023/05/03 00:14:05;;;;;;;;;;;;;;;21.69;29.91;98617.16;5075215;28;855;-74
2023/05/03 00:16:31;;;;;;;;;;;;;;;21.48;30.34;98617.53;5075242;28;857;-75
2023/05/03 00:18:57;;;;;;;;;;;;;;;21.53;30.37;98619.88;5058572;28;979;-74
2023/05/03 00:21:22;;;;;;;;;;;;;;;21.83;30.19;98616.91;5076276;28;976;-74
2023/05/03 00:23:47;;;;;;;;;;;;;;;22.29;29.86;98615.28;5076503;28;930;-74
2023/05/03 00:26:16;;;;;;;;;;;;;;;22.26;29.55;98604.81;5075359;28;1304;-74
2023/05/03 00:28:41;;;;;;;;;;;;;;;22.08;29.57;98598.66;5074836;28;917;-76
2023/05/03 00:31:08;;;;;;;;;;;;;;;21.95;29.59;98601.31;5076308;28;914;-74
2023/05/03 00:33:34;;;;;;;;;;;;;;;21.76;29.62;98605.72;5074849;28;1980;-74
2023/05/03 00:36:05;;;;;;;;;;;;;;;21.62;29.82;98600.31;5075537;28;920;-74
2023/05/03 00:38:31;;;;;;;;;;;;;;;21.72;30.04;98596.47;5058412;28;1258;-74
2023/05/03 00:40:56;;;;;;;;;;;;;;;21.59;30.16;98598.31;5058318;28;1207;-74
2023/05/03 00:43:22;;;;;;;;;;;;;;;21.45;30.23;98596.53;5058130;28;1102;-74
2023/05/03 00:45:47;;;;;;;;;;;;;;;21.45;30.68;98596.53;5058605;28;1213;-74
2023/05/03 00:48:13;;;;;;;;;;;;;;;21.15;31.01;98588.91;5074978;28;881;-74
2023/05/03 00:50:38;;;;;;;;;;;;;;;21.44;30.73;98591.28;5058269;28;1349;-74
2023/05/03 00:53:04;;;;;;;;;;;;;;;21.41;31.04;98586.50;5074709;28;1967;-74
2023/05/03 00:55:30;;;;;;;;;;;;;;;21.44;30.71;98582.81;5093763;28;1267;-74
2023/05/03 00:57:56;;;;;;;;;;;;;;;21.53;30.78;98585.88;5044424;28;1622;-74
2023/05/03 01:00:22;;;;;;;;;;;;;;;21.44;30.49;98577.13;5061063;28;932;-74
2023/05/03 01:02:48;;;;;;;;;;;;;;;21.41;30.55;98573.16;5044513;28;943;-74
2023/05/03 01:05:14;;;;;;;;;;;;;;;21.63;30.12;98570.75;5028045;28;1109;-74
2023/05/03 01:07:59;;;;;;;;;;;;;;;21.74;29.96;98574.19;5060787;28;981;-75
2023/05/03 01:10:26;;;;;;;;;;;;;;;22.05;30.49;98571.19;5043930;28;1174;-74
2023/05/03 01:12:54;;;;;;;;;;;;;;;22.21;29.97;98573.31;5044149;28;1963;-74
2023/05/03 01:15:38;;;;;;;;;;;;;;;22.29;29.63;98569.13;5044062;28;1113;-74
2023/05/03 01:18:07;;;;;;;;;;;;;;;21.82;30.47;98569.19;5077096;28;1052;-74
2023/05/03 01:20:33;;;;;;;;;;;;;;;21.75;30.31;98570.09;5044136;28;1159;-74
2023/05/03 01:22:59;;;;;;;;;;;;;;;21.64;30.14;98571.53;5060395;28;932;-74
2023/05/03 01:25:25;;;;;;;;;;;;;;;21.46;30.60;98569.03;5060695;28;1218;-74
2023/05/03 01:27:51;;;;;;;;;;;;;;;21.41;30.43;98573.16;5061826;28;1057;-74
2023/05/03 01:30:17;;;;;;;;;;;;;;;21.73;30.02;98566.91;5078309;28;901;-74
2023/05/03 01:33:01;;;;;;;;;;;;;;;21.69;30.17;98576.72;5061455;28;1902;-74
2023/05/03 01:35:33;;;;;;;;;;;;;;;21.54;30.44;98576.16;5077867;28;1318;-74
2023/05/03 01:37:59;;;;;;;;;;;;;;;21.23;31.39;98575.44;5079063;28;1057;-74
2023/05/03 01:40:24;;;;;;;;;;;;;;;21.40;30.85;98582.06;5077896;28;872;-74
2023/05/03 01:42:50;;;;;;;;;;;;;;;22.21;30.18;98579.78;5060986;28;887;-75
2023/05/03 01:45:15;;;;;;;;;;;;;;;22.55;29.53;98573.84;5077787;28;985;-74
2023/05/03 01:47:41;;;;;;;;;;;;;;;22.30;29.87;98577.19;5077909;28;875;-74
2023/05/03 01:50:06;;;;;;;;;;;;;;;22.07;29.85;98574.38;5044344;28;1190;-74
2023/05/03 01:52:32;;;;;;;;;;;;;;;21.72;30.14;98571.00;5077798;28;1983;-74
2023/05/03 01:54:58;;;;;;;;;;;;;;;21.79;29.81;98565.19;5061081;28;1232;-74
2023/05/03 01:57:24;;;;;;;;;;;;;;;21.73;29.75;98578.25;5077843;28;1331;-74
2023/05/03 01:59:50;;;;;;;;;;;;;;;21.68;30.25;98575.91;5061160;28;1178;-74
2023/05/03 02:02:15;;;;;;;;;;;;;;;21.61;30.28;98570.38;5061174;28;1110;-74
2023/05/03 02:04:41;;;;;;;;;;;;;;;21.47;30.58;98571.41;5077117;28;1217;-74
2023/05/03 02:07:07;;;;;;;;;;;;;;;21.37;30.63;98571.59;5077832;28;942;-74
2023/05/03 02:09:32;;;;;;;;;;;;;;;21.45;30.60;98578.72;5060980;28;1129;-74
2023/05/03 02:11:59;;;;;;;;;;;;;;;21.63;30.33;98578.44;5060455;28;1979;-74
2023/05/03 02:14:24;;;;;;;;;;;;;;;21.91;30.84;98571.44;5076982;28;1494;-74
2023/05/03 02:16:50;;;;;;;;;;;;;;;22.59;29.65;98565.25;5079574;28;1174;-74
2023/05/03 02:19:16;;;;;;;;;;;;;;;22.31;29.87;98573.09;5079378;28;1113;-74
2023/05/03 02:21:41;;;;;;;;;;;;;;;21.73;30.35;98572.59;5113469;28;944;-75
2023/05/03 02:24:07;;;;;;;;;;;;;;;21.70;30.45;98567.78;5113302;28;1092;-74
2023/05/03 02:26:32;;;;;;;;;;;;;;;21.69;30.13;98566.19;5096140;28;1179;-74
2023/05/03 02:28:58;;;;;;;;;;;;;;;21.57;30.40;98566.81;5079361;28;1214;-74
2023/05/03 02:31:26;;;;;;;;;;;;;;;21.54;30.31;98564.81;5078990;28;1902;-74
2023/05/03 02:33:53;;;;;;;;;;;;;;;21.77;29.92;98572.53;5079281;28;1098;-74
2023/05/03 02:36:20;;;;;;;;;;;;;;;21.73;30.35;98572.59;5079272;28;977;-74
2023/05/03 02:38:46;;;;;;;;;;;;;;;21.59;30.54;98584.16;5079296;28;1248;-75
2023/05/03 02:41:11;;;;;;;;;;;;;;;21.55;30.64;98577.75;5096280;28;1026;-74
2023/05/03 02:43:37;;;;;;;;;;;;;;;21.47;30.66;98576.28;5079129;28;1148;-74
2023/05/03 02:46:02;;;;;;;;;;;;;;;21.52;30.63;98581.47;5079294;28;1282;-74
2023/05/03 02:48:28;;;;;;;;;;;;;;;21.73;30.50;98583.91;5075258;28;1386;-74
2023/05/03 02:50:54;;;;;;;;;;;;;;;21.67;30.45;98585.66;5058995;28;1131;-74
2023/05/03 02:53:20;;;;;;;;;;;;;;;21.49;30.81;98583.09;5054751;28;1985;-74
2023/05/03 02:55:46;;;;;;;;;;;;;;;21.35;31.54;98583.38;5022427;28;1255;-74
2023/05/03 02:58:11;;;;;;;;;;;;;;;21.40;30.90;98582.06;5022133;28;1228;-74
2023/05/03 03:00:37;;;;;;;;;;;;;;;21.73;30.32;98588.78;5022298;28;1265;-75
2023/05/03 03:03:03;;;;;;;;;;;;;;;21.60;30.79;98591.41;5036384;28;973;-74
2023/05/03 03:05:28;;;;;;;;;;;;;;;21.64;30.46;98592.16;5018755;28;886;-74
2023/05/03 03:07:54;;;;;;;;;;;;;;;21.25;31.16;98587.13;5002322;28;1061;-74
2023/05/03 03:10:19;;;;;;;;;;;;;;;21.56;30.58;98590.69;5002217;28;1232;-74
2023/05/03 03:12:45;;;;;;;;;;;;;;;22.21;30.13;98591.13;5002524;28;1918;-74
2023/05/03 03:15:20;;;;;;;;;;;;;;;22.44;30.03;98580.97;5003260;28;1159;-74
2023/05/03 03:17:46;;;;;;;;;;;;;;;22.26;30.16;98587.78;5018178;28;1137;-74
2023/05/03 03:20:12;;;;;;;;;;;;;;;21.88;30.65;98600.66;5018299;28;1066;-74
2023/05/03 03:22:42;;;;;;;;;;;;;;;21.60;30.54;98585.75;5054556;28;1452;-74
2023/05/03 03:25:09;;;;;;;;;;;;;;;21.35;31.06;98594.69;5069864;28;1138;-74
2023/05/03 03:27:35;;;;;;;;;;;;;;;21.42;30.97;98590.94;5042801;28;1184;-74
2023/05/03 03:30:01;;;;;;;;;;;;;;;21.41;30.82;98595.00;5059060;28;1146;-75
2023/05/03 03:32:31;;;;;;;;;;;;;;;21.69;30.45;98588.84;5059521;28;2330;-74
2023/05/03 03:34:58;;;;;;;;;;;;;;;21.51;31.02;98599.69;5059480;28;1235;-74
2023/05/03 03:37:24;;;;;;;;;;;;;;;21.58;30.69;98600.34;5042806;28;1173;-74
2023/05/03 03:39:49;;;;;;;;;;;;;;;21.73;30.52;98600.91;5057518;28;824;-75
2023/05/03 03:42:15;;;;;;;;;;;;;;;21.63;30.74;98607.56;5059384;28;1213;-74
2023/05/03 03:44:41;;;;;;;;;;;;;;;21.49;30.99;98607.78;5058811;28;979;-74
2023/05/03 03:47:07;;;;;;;;;;;;;;;21.43;30.97;98615.19;5075865;28;1387;-74
2023/05/03 03:49:33;;;;;;;;;;;;;;;21.45;31.23;98613.53;5075998;28;1106;-74
2023/05/03 03:51:59;;;;;;;;;;;;;;;21.57;30.76;98614.94;5075838;28;1909;-74
2023/05/03 03:54:25;;;;;;;;;;;;;;;21.64;30.66;98614.81;5058861;28;1115;-74
2023/05/03 03:56:51;;;;;;;;;;;;;;;21.56;31.04;98607.69;5075665;28;1426;-74
2023/05/03 03:59:18;;;;;;;;;;;;;;;21.36;31.13;98610.44;5059276;28;1093;-74
2023/05/03 04:01:45;;;;;;;;;;;;;;;21.56;30.95;98602.03;5059088;28;1130;-74
2023/05/03 04:04:11;;;;;;;;;;;;;;;21.75;30.59;98612.59;5058986;28;1289;-74
2023/05/03 04:06:37;;;;;;;;;;;;;;;21.63;30.79;98613.22;5075596;28;1319;-74
2023/05/03 04:09:06;;;;;;;;;;;;;;;21.73;30.24;98609.41;5058989;28;1181;-74
2023/05/03 04:11:33;;;;;;;;;;;;;;;22.08;30.62;98610.00;5075009;28;1914;-74
2023/05/03 04:14:01;;;;;;;;;;;;;;;22.50;30.28;98610.41;5042728;28;1103;-74
2023/05/03 04:16:29;;;;;;;;;;;;;;;22.47;30.17;98614.91;5043022;28;1236;-73
2023/05/03 04:18:55;;;;;;;;;;;;;;;21.98;30.66;98616.66;5058658;28;1398;-74
2023/05/03 04:21:21;;;;;;;;;;;;;;;21.76;30.75;98611.38;5075174;28;1108;-74
2023/05/03 04:23:47;;;;;;;;;;;;;;;21.77;30.32;98624.31;5075288;28;1184;-74
2023/05/03 04:26:16;;;;;;;;;;;;;;;21.73;30.62;98617.91;5058397;28;1522;-74
2023/05/03 04:28:43;;;;;;;;;;;;;;;21.68;30.44;98620.44;5044146;28;1133;-74
2023/05/03 04:31:08;;;;;;;;;;;;;;;21.48;31.06;98620.34;5079223;28;1294;-75
2023/05/03 04:33:35;;;;;;;;;;;;;;;21.64;30.76;98620.47;5079533;28;1982;-74
2023/05/03 04:36:03;;;;;;;;;;;;;;;21.41;31.42;98612.00;5062773;28;1148;-74
2023/05/03 04:38:29;;;;;;;;;;;;;;;21.47;31.07;98622.38;5062822;28;1075;-74
2023/05/03 04:40:57;;;;;;;;;;;;;;;21.04;32.16;98620.19;5078684;28;1305;-74
2023/05/03 04:43:23;;;;;;;;;;;;;;;21.06;31.75;98614.91;5094966;28;1095;-74
2023/05/03 04:45:50;;;;;;;;;;;;;;;21.43;31.75;98620.84;5061307;28;1111;-74
2023/05/03 04:48:20;;;;;;;;;;;;;;;21.82;31.17;98618.16;5045300;28;1238;-75
2023/05/03 04:50:45;;;;;;;;;;;;;;;21.97;31.02;98627.19;5028193;28;1257;-74
2023/05/03 04:53:13;;;;;;;;;;;;;;;21.91;30.58;98619.59;5028361;28;1907;-74
2023/05/03 04:55:41;;;;;;;;;;;;;;;21.84;30.42;98624.19;5041384;28;1127;-74
2023/05/03 04:58:07;;;;;;;;;;;;;;;21.56;30.65;98625.47;5024607;28;1177;-75
2023/05/03 05:00:35;;;;;;;;;;;;;;;21.44;30.73;98628.09;5041223;28;1243;-74
2023/05/03 05:03:07;;;;;;;;;;;;;;;21.28;30.97;98626.69;5020987;28;1180;-74
2023/05/03 05:05:33;;;;;;;;;;;;;;;21.51;30.85;98639.31;5037507;28;1218;-73
2023/05/03 05:07:59;;;;;;;;;;;;;;;21.35;30.92;98642.81;5001339;28;1197;-74
2023/05/03 05:10:29;;;;;;;;;;;;;;;21.23;31.13;98641.31;5001319;28;1141;-74
2023/05/03 05:12:57;;;;;;;;;;;;;;;21.24;30.99;98648.59;5001182;28;1973;-74
2023/05/03 05:15:22;;;;;;;;;;;;;;;22.14;29.96;98656.47;4999491;28;1236;-74
2023/05/03 05:17:49;;;;;;;;;;;;;;;22.32;29.34;98653.28;4981847;28;1155;-74
2023/05/03 05:20:16;;;;;;;;;;;;;;;22.39;29.15;98652.38;4981817;28;1397;-74
2023/05/03 05:22:45;;;;;;;;;;;;;;;21.75;30.02;98649.41;4997728;28;994;-74
2023/05/03 05:25:11;;;;;;;;;;;;;;;21.60;30.22;98648.06;4997855;28;1008;-74
2023/05/03 05:27:38;;;;;;;;;;;;;;;21.56;30.21;98653.00;4999484;28;1097;-74
2023/05/03 05:30:05;;;;;;;;;;;;;;;21.39;30.08;98654.06;5001000;28;1264;-74
2023/05/03 05:32:32;;;;;;;;;;;;;;;21.41;30.56;98657.28;5037194;28;1922;-74
2023/05/03 05:34:58;;;;;;;;;;;;;;;21.64;29.77;98654.47;5023849;28;1243;-74
2023/05/03 05:37:26;;;;;;;;;;;;;;;21.83;29.90;98650.91;5057049;28;1067;-74
2023/05/03 05:39:54;;;;;;;;;;;;;;;21.74;30.01;98659.16;5056214;28;1319;-74
2023/05/03 05:42:22;;;;;;;;;;;;;;;21.97;29.39;98646.25;5056794;28;1288;-74
2023/05/03 05:44:48;;;;;;;;;;;;;;;21.62;29.96;98654.09;5061700;28;944;-74
2023/05/03 05:47:14;;;;;;;;;;;;;;;21.22;30.23;98662.38;5060531;28;1168;-74
2023/05/03 05:49:42;;;;;;;;;;;;;;;21.50;29.50;98666.00;5059808;28;1277;-75
2023/05/03 05:52:09;;;;;;;;;;;;;;;21.62;29.32;98673.13;5043111;28;1969;-75
2023/05/03 05:54:35;;;;;;;;;;;;;;;21.42;29.90;98661.72;5043230;28;1265;-74
2023/05/03 05:57:01;;;;;;;;;;;;;;;21.54;29.47;98661.09;5059884;28;1189;-74
2023/05/03 05:59:30;;;;;;;;;;;;;;;21.71;29.51;98660.03;5059971;28;1111;-74
2023/05/03 06:01:58;;;;;;;;;;;;;;;22.00;29.02;98665.19;5039703;28;1211;-74
2023/05/03 06:04:25;;;;;;;;;;;;;;;21.98;28.80;98670.50;5039771;28;1110;-74
2023/05/03 06:06:51;;;;;;;;;;;;;;;21.93;28.93;98676.66;5056502;28;1089;-74
2023/05/03 06:09:17;;;;;;;;;;;;;;;21.63;29.18;98675.53;5056474;28;1100;-74
2023/05/03 06:11:42;;;;;;;;;;;;;;;21.32;29.32;98671.97;5039464;28;1905;-74
2023/05/03 06:14:08;;;;;;;;;;;;;;;21.19;29.54;98674.56;5039548;28;1224;-74
2023/05/03 06:16:36;;;;;;;;;;;;;;;21.79;29.06;98672.81;5023612;28;1165;-74
2023/05/03 06:19:01;;;;;;;;;;;;;;;22.06;28.33;98681.25;5056115;28;1110;-74
2023/05/03 06:21:28;;;;;;;;;;;;;;;22.02;28.30;98685.38;5072926;28;1260;-75
2023/05/03 06:23:55;;;;;;;;;;;;;;;21.78;28.38;98685.41;5039204;28;1099;-74
2023/05/03 06:26:20;;;;;;;;;;;;;;;21.45;28.79;98686.31;5022713;28;1146;-74
2023/05/03 06:28:46;;;;;;;;;;;;;;;21.23;29.48;98686.59;5039569;28;1035;-74
2023/05/03 06:31:12;;;;;;;;;;;;;;;21.50;28.85;98683.00;5019327;28;1330;-74
2023/05/03 06:33:37;;;;;;;;;;;;;;;21.31;28.91;98690.97;5051688;28;1922;-74
2023/05/03 06:36:04;;;;;;;;;;;;;;;21.79;28.57;98677.69;5075914;28;1653;-74
2023/05/03 06:38:29;;;;;;;;;;;;;;;22.05;28.44;98673.19;5059193;28;1103;-74
2023/05/03 06:40:55;;;;;;;;;;;;;;;22.00;28.16;98676.53;5059214;28;1758;-74
2023/05/03 06:43:21;;;;;;;;;;;;;;;21.77;28.40;98672.47;5075834;28;1150;-74
2023/05/03 06:45:58;;;;;;;;;;;;;;;21.60;28.56;98673.53;5019121;28;1222;-74
2023/05/03 06:48:24;;;;;;;;;;;;;;;21.52;28.51;98675.69;5035431;28;986;-75
2023/05/03 06:50:50;;;;;;;;;;;;;;;21.54;28.87;98673.22;5018705;28;1010;-74
2023/05/03 06:53:15;;;;;;;;;;;;;;;21.87;28.38;98664.22;5018288;28;1976;-74
2023/05/03 06:55:45;;;;;;;;;;;;;;;22.23;27.63;98661.59;5035355;28;1017;-74
2023/05/03 06:58:10;;;;;;;;;;;;;;;22.06;28.04;98669.13;5035227;28;967;-74
2023/05/03 07:00:38;;;;;;;;;;;;;;;21.63;28.57;98666.22;5019004;28;958;-74
2023/05/03 07:03:04;;;;;;;;;;;;;;;21.45;28.66;98664.50;5032456;28;987;-74
2023/05/03 07:05:29;;;;;;;;;;;;;;;21.59;28.47;98669.13;5019084;28;1006;-74
2023/05/03 07:07:55;;;;;;;;;;;;;;;21.59;28.40;98674.78;5035594;28;1085;-74
2023/05/03 07:10:20;;;;;;;;;;;;;;;21.40;28.71;98672.63;5015423;28;1134;-74
2023/05/03 07:12:46;;;;;;;;;;;;;;;21.20;29.30;98675.34;5015393;28;1909;-74
2023/05/03 07:15:11;;;;;;;;;;;;;;;22.07;28.02;98684.88;5015085;28;987;-74
2023/05/03 07:17:37;;;;;;;;;;;;;;;22.21;27.88;98695.22;5015660;28;1015;-74
2023/05/03 07:20:03;;;;;;;;;;;;;;;21.72;28.22;98687.13;5034784;28;995;-74
2023/05/03 07:22:28;;;;;;;;;;;;;;;21.36;29.06;98677.56;5018379;28;1189;-76
2023/05/03 07:24:54;;;;;;;;;;;;;;;21.44;28.87;98677.03;5018604;28;966;-75
2023/05/03 07:27:20;;;;;;;;;;;;;;;21.41;28.52;98675.06;5035006;28;988;-74
2023/05/03 07:29:45;;;;;;;;;;;;;;;21.18;28.93;98692.75;5034781;28;1012;-74
2023/05/03 07:32:11;;;;;;;;;;;;;;;21.76;28.52;98696.38;5018413;28;1989;-75
2023/05/03 07:34:37;;;;;;;;;;;;;;;22.07;27.85;98699.88;5033675;28;1092;-74
2023/05/03 07:37:02;;;;;;;;;;;;;;;22.11;27.89;98702.66;5038035;28;974;-74
2023/05/03 07:39:28;;;;;;;;;;;;;;;21.65;28.25;98698.53;5037880;28;1109;-74
2023/05/03 07:41:53;;;;;;;;;;;;;;;21.14;29.30;98717.47;5064973;28;1224;-74
2023/05/03 07:44:19;;;;;;;;;;;;;;;21.29;28.70;98706.75;5076718;28;922;-74
2023/05/03 07:46:44;;;;;;;;;;;;;;;21.42;28.65;98698.50;5059210;28;1668;-74
2023/05/03 07:49:10;;;;;;;;;;;;;;;21.28;28.68;98714.44;5058823;28;944;-74
2023/05/03 07:51:36;;;;;;;;;;;;;;;21.52;28.56;98720.19;5090729;28;1906;-74
2023/05/03 07:54:01;;;;;;;;;;;;;;;21.90;27.94;98711.50;5057884;28;1017;-75
2023/05/03 07:56:27;;;;;;;;;;;;;;;21.84;27.94;98714.03;5040902;28;1288;-75
2023/05/03 07:58:59;;;;;;;;;;;;;;;21.45;28.59;98720.28;5042191;28;1277;-74
2023/05/03 08:01:25;;;;;;;;;;;;;;;21.49;28.64;98746.53;5057437;28;965;-74
2023/05/03 08:03:51;;;;;;;;;;;;;;;21.58;28.65;98763.78;5057658;28;930;-74
2023/05/03 08:06:17;;;;;;;;;;;;;;;21.51;28.48;98758.25;5040832;28;1100;-74
2023/05/03 08:08:42;;;;;;;;;;;;;;;21.38;28.82;98765.69;5034170;28;966;-75
2023/05/03 08:11:08;;;;;;;;;;;;;;;21.57;28.38;98763.00;5017582;28;1120;-74
2023/05/03 08:13:36;;;;;;;;;;;;;;;21.30;29.00;98760.16;5050594;28;1984;-75
2023/05/03 08:16:01;;;;;;;;;;;;;;;22.03;27.87;98766.38;5010845;28;1271;-74
2023/05/03 08:18:27;;;;;;;;;;;;;;;21.92;27.89;98768.56;5027511;28;1227;-74
2023/05/03 08:20:52;;;;;;;;;;;;;;;21.71;28.06;98773.31;5011062;28;1193;-74
2023/05/03 08:23:18;;;;;;;;;;;;;;;21.41;28.63;98765.66;4994372;28;921;-75
2023/05/03 08:25:47;;;;;;;;;;;;;;;21.53;28.27;98761.44;5010513;28;979;-74
2023/05/03 08:28:12;;;;;;;;;;;;;;;21.20;28.86;98761.06;4994468;28;1082;-74
2023/05/03 08:30:38;;;;;;;;;;;;;;;21.04;29.12;98770.16;4994561;28;1130;-74
2023/05/03 08:33:03;;;;;;;;;;;;;;;21.20;29.10;98766.72;4994246;28;1989;-75
2023/05/03 08:35:30;;;;;;;;;;;;;;;21.83;28.03;98757.75;4978132;28;1148;-75
2023/05/03 08:37:56;;;;;;;;;;;;;;;21.72;28.28;98766.44;4994617;28;922;-74
2023/05/03 08:40:21;;;;;;;;;;;;;;;21.93;27.73;98761.66;5025017;28;978;-74
2023/05/03 08:42:48;;;;;;;;;;;;;;;21.48;28.29;98776.06;5033963;28;1007;-74
2023/05/03 08:45:15;;;;;;;;;;;;;;;21.53;28.21;98772.78;5017468;28;926;-74
2023/05/03 08:47:43;;;;;;;;;;;;;;;21.18;28.59;98774.81;5061883;28;1039;-74
2023/05/03 08:50:09;;;;;;;;;;;;;;;21.31;28.41;98775.91;5058104;28;906;-74
2023/05/03 08:52:35;;;;;;;;;;;;;;;21.58;28.14;98775.94;5073263;28;1929;-74
2023/05/03 08:55:00;;;;;;;;;;;;;;;21.98;27.51;98781.00;5073844;28;1224;-74
2023/05/03 08:57:26;;;;;;;;;;;;;;;22.06;27.20;98779.66;5073744;28;997;-75
2023/05/03 08:59:56;;;;;;;;;;;;;;;21.84;27.48;98782.81;5056872;28;1150;-74
2023/05/03 09:02:21;;;;;;;;;;;;;;;21.49;28.27;98786.16;5089901;28;969;-74
2023/05/03 09:04:47;;;;;;;;;;;;;;;21.60;28.16;98772.66;5057136;28;1365;-75
2023/05/03 09:07:14;;;;;;;;;;;;;;;21.75;27.85;98767.59;5073157;28;961;-74
2023/05/03 09:09:40;;;;;;;;;;;;;;;21.31;28.15;98777.94;5073554;28;930;-74
2023/05/03 09:12:05;;;;;;;;;;;;;;;21.40;28.25;98763.22;5073227;28;1902;-75
2023/05/03 09:14:40;;;;;;;;;;;;;;;21.79;27.95;98749.31;5056405;28;958;-74
2023/05/03 09:17:20;;;;;;;;;;;;;;;21.82;27.51;98745.63;5077049;28;1101;-74
2023/05/03 09:20:07;;;;;;;;;;;;;;;21.89;27.63;98743.91;5093469;28;1006;-75
2023/05/03 09:22:33;;;;;;;;;;;;;;;21.93;27.44;98750.34;5059969;28;998;-74
2023/05/03 09:24:59;;;;;;;;;;;;;;;21.36;28.33;98745.53;5061945;28;902;-75
2023/05/03 09:27:25;;;;;;;;;;;;;;;21.37;28.29;98732.97;5077748;28;978;-74
2023/05/03 09:29:51;;;;;;;;;;;;;;;21.21;28.41;98744.88;5079027;28;975;-74
2023/05/03 09:32:16;;;;;;;;;;;;;;;21.63;27.96;98743.50;5077647;28;1901;-75
2023/05/03 09:34:42;;;;;;;;;;;;;;;22.32;27.10;98739.13;5078001;28;943;-75
2023/05/03 09:37:07;;;;;;;;;;;;;;;22.16;27.19;98747.53;5077542;28;972;-74
2023/05/03 09:39:35;;;;;;;;;;;;;;;21.84;27.53;98737.50;5060978;28;1264;-74
2023/05/03 09:42:16;;;;;;;;;;;;;;;21.77;27.60;98734.78;5077927;28;1091;-74
2023/05/03 09:44:43;;;;;;;;;;;;;;;21.55;28.26;98736.31;5077733;28;903;-74
2023/05/03 09:47:08;;;;;;;;;;;;;;;21.38;28.36;98726.06;5077612;28;903;-74
2023/05/03 09:49:35;;;;;;;;;;;;;;;21.00;28.72;98737.47;5078802;28;928;-75
2023/05/03 09:52:01;;;;;;;;;;;;;;;21.21;28.52;98723.03;5076919;28;1973;-74
2023/05/03 09:54:27;;;;;;;;;;;;;;;21.79;27.98;98732.31;5077324;28;946;-75
2023/05/03 09:56:54;;;;;;;;;;;;;;;22.16;27.37;98730.53;5078630;28;1080;-74
2023/05/03 09:59:19;;;;;;;;;;;;;;;21.77;27.91;98726.28;5078260;28;1087;-74
2023/05/03 10:01:45;;;;;;;;;;;;;;;21.71;27.58;98716.69;5077264;28;898;-75
2023/05/03 10:04:10;;;;;;;;;;;;;;;21.33;28.20;98708.31;5077910;28;1018;-74
2023/05/03 10:06:40;;;;;;;;;;;;;;;21.51;28.22;98707.28;5077810;28;1093;-75
2023/05/03 10:09:25;;;;;;;;;;;;;;;21.47;28.22;98710.16;5078526;28;925;-74
2023/05/03 10:11:53;;;;;;;;;;;;;;;21.27;28.46;98710.00;5077064;28;1914;-75
2023/05/03 10:14:19;;;;;;;;;;;;;;;21.59;28.18;98714.41;5078435;28;848;-74
2023/05/03 10:16:46;;;;;;;;;;;;;;;22.01;27.27;98700.78;5060317;28;1611;-74
2023/05/03 10:19:16;;;;;;;;;;;;;;;21.92;27.39;98697.72;5060577;28;1619;-74
2023/05/03 10:21:58;;;;;;;;;;;;;;;21.64;28.01;98699.78;5060361;28;980;-74
2023/05/03 10:24:24;;;;;;;;;;;;;;;21.48;28.29;98691.94;5076644;28;1217;-75
2023/05/03 10:26:49;;;;;;;;;;;;;;;21.38;28.42;98695.72;5038817;28;1095;-74
2023/05/03 10:29:37;;;;;;;;;;;;;;;21.20;28.86;98687.47;5056206;28;1007;-75
2023/05/03 10:32:23;;;;;;;;;;;;;;;21.26;28.35;98685.75;5055371;28;1914;-74
2023/05/03 10:34:49;;;;;;;;;;;;;;;21.14;28.88;98694.00;5055376;28;963;-74
2023/05/03 10:37:14;;;;;;;;;;;;;;;21.48;28.08;98691.13;5039039;28;961;-76
2023/05/03 10:39:45;;;;;;;;;;;;;;;21.75;27.87;98700.41;5055681;28;935;-74
2023/05/03 10:42:12;;;;;;;;;;;;;;;21.77;27.70;98703.63;5055978;28;953;-74
2023/05/03 10:44:38;;;;;;;;;;;;;;;22.12;27.04;98701.44;5055430;28;973;-75
2023/05/03 10:47:11;;;;;;;;;;;;;;;21.61;27.73;98700.66;5055419;28;1015;-74
2023/05/03 10:49:37;;;;;;;;;;;;;;;21.57;28.06;98697.06;5055420;28;879;-74
2023/05/03 10:52:02;;;;;;;;;;;;;;;21.64;27.75;98694.13;5055503;28;1901;-74
2023/05/03 10:54:28;;;;;;;;;;;;;;;21.54;27.96;98695.09;5055340;28;942;-75
2023/05/03 10:56:54;;;;;;;;;;;;;;;21.57;28.14;98694.25;5024787;28;1169;-75
2023/05/03 10:59:20;;;;;;;;;;;;;;;21.59;27.93;98703.09;5076526;28;984;-74
2023/05/03 11:01:47;;;;;;;;;;;;;;;21.39;28.35;98694.50;5059972;28;1090;-75
2023/05/03 11:04:25;;;;;;;;;;;;;;;21.36;28.18;98694.56;5076124;28;932;-74
2023/05/03 11:06:55;;;;;;;;;;;;;;;21.39;28.14;98686.00;5075928;28;911;-74
2023/05/03 11:09:28;;;;;;;;;;;;;;;21.52;28.12;98691.88;5059680;28;913;-74
2023/05/03 11:11:54;;;;;;;;;;;;;;;21.94;27.46;98689.59;5076048;28;1902;-74
2023/05/03 11:14:19;;;;;;;;;;;;;;;21.60;27.56;98648.06;5075846;28;1097;-74
2023/05/03 11:16:49;;;;;;;;;;;;;;;21.67;27.40;98684.78;5075620;28;868;-75
2023/05/03 11:19:15;;;;;;;;;;;;;;;21.59;28.03;98680.44;5077095;28;863;-74
2023/05/03 11:21:41;;;;;;;;;;;;;;;21.19;28.38;98668.06;5075952;28;874;-74
2023/05/03 11:24:06;;;;;;;;;;;;;;;21.11;28.41;98667.38;5075732;28;916;-75
2023/05/03 11:26:38;;;;;;;;;;;;;;;21.25;28.05;98667.19;5058871;28;906;-74
2023/05/03 11:29:04;;;;;;;;;;;;;;;21.68;27.56;98660.88;5075427;28;952;-74
2023/05/03 11:31:30;;;;;;;;;;;;;;;21.59;27.77;98672.75;5075431;28;883;-74
2023/05/03 11:33:56;;;;;;;;;;;;;;;21.79;27.56;98672.81;5075602;28;1910;-74
2023/05/03 11:36:21;;;;;;;;;;;;;;;21.51;27.86;98681.81;5075504;28;1011;-74
2023/05/03 11:38:47;;;;;;;;;;;;;;;21.72;27.53;98678.63;5076277;28;980;-74
2023/05/03 11:41:13;;;;;;;;;;;;;;;21.58;27.57;98684.50;5076409;28;872;-75
2023/05/03 11:43:48;;;;;;;;;;;;;;;21.44;27.89;98682.69;5074150;28;940;-74
2023/05/03 11:46:23;;;;;;;;;;;;;;;21.46;27.82;98673.78;5057736;28;948;-75
2023/05/03 11:48:48;;;;;;;;;;;;;;;21.98;27.17;98676.16;5057771;28;957;-75
2023/05/03 11:51:15;;;;;;;;;;;;;;;21.88;27.36;98668.66;5074351;28;861;-74
2023/05/03 11:53:41;;;;;;;;;;;;;;;21.69;27.50;98676.63;5057177;28;1985;-74
2023/05/03 11:56:08;;;;;;;;;;;;;;;21.38;27.77;98686.44;5041229;28;1110;-74
2023/05/03 11:58:34;;;;;;;;;;;;;;;21.32;28.19;98669.13;5040697;28;1154;-74
2023/05/03 12:00:59;;;;;;;;;;;;;;;21.47;27.70;98664.84;5057450;28;961;-74
2023/05/03 12:03:26;;;;;;;;;;;;;;;21.20;28.25;98659.19;5057660;28;943;-75
2023/05/03 12:05:52;;;;;;;;;;;;;;;21.22;28.25;98648.22;5074309;28;978;-74
2023/05/03 12:08:18;;;;;;;;;;;;;;;21.98;27.24;98639.34;5040522;28;1310;-74
2023/05/03 12:10:44;;;;;;;;;;;;;;;21.73;27.40;98646.22;5056925;28;1079;-74
2023/05/03 12:13:10;;;;;;;;;;;;;;;22.03;27.08;98642.47;5073854;28;1988;-74
2023/05/03 12:15:39;;;;;;;;;;;;;;;22.03;27.11;98641.66;5056013;28;954;-74
2023/05/03 12:18:09;;;;;;;;;;;;;;;21.52;27.72;98657.91;5075390;28;946;-74
2023/05/03 12:20:35;;;;;;;;;;;;;;;21.08;28.42;98656.91;5097498;28;1086;-74
2023/05/03 12:23:01;;;;;;;;;;;;;;;21.19;28.27;98657.56;5097689;28;1088;-74
2023/05/03 12:25:27;;;;;;;;;;;;;;;21.35;27.83;98664.63;5063674;28;1218;-75
2023/05/03 12:27:53;;;;;;;;;;;;;;;21.41;27.91;98663.75;5097474;28;1182;-74
2023/05/03 12:30:18;;;;;;;;;;;;;;;21.69;27.64;98668.13;5080568;28;1216;-74
2023/05/03 12:32:44;;;;;;;;;;;;;;;21.78;27.19;98659.09;5080624;28;1906;-74
2023/05/03 12:35:09;;;;;;;;;;;;;;;21.57;27.50;98655.41;5080299;28;1332;-75
2023/05/03 12:37:35;;;;;;;;;;;;;;;21.41;27.69;98662.94;5080472;28;1091;-74
2023/05/03 12:40:01;;;;;;;;;;;;;;;21.43;27.89;98660.47;5097405;28;1419;-74
2023/05/03 12:42:27;;;;;;;;;;;;;;;21.56;27.46;98658.66;5080435;28;1001;-74
2023/05/03 12:44:58;;;;;;;;;;;;;;;21.64;27.72;98648.81;5097323;28;1168;-74
2023/05/03 12:47:25;;;;;;;;;;;;;;;21.97;27.23;98647.03;5097289;28;1121;-74
2023/05/03 12:49:51;;;;;;;;;;;;;;;22.05;26.97;98644.88;5082741;28;1207;-74
2023/05/03 12:52:16;;;;;;;;;;;;;;;21.73;27.20;98640.56;5068406;28;1972;-75
2023/05/03 12:54:42;;;;;;;;;;;;;;;21.37;27.79;98634.69;5077522;28;966;-74
2023/05/03 12:57:08;;;;;;;;;;;;;;;21.55;27.51;98628.72;5044153;28;956;-74
2023/05/03 12:59:37;;;;;;;;;;;;;;;21.50;27.66;98620.72;5060808;28;1078;-74